Terminal Aerodrome Forecast
Issued by NWS Louisville, KY

Home | Current Version | Previous Version | Text Only | Print | Product List | Glossary On
Versions: 1 2 3 4 5 6 7 8 9 10 11 12 13 14
000
FTUS43 KLMK 242332
TAFSDF
TAF
KSDF 242332Z 2500/2606 VRB04KT P6SM SKC
      TEMPO 2510/2514 6SM BR
     FM251700 VRB04KT P6SM SCT050
     FM260000 13003KT P6SM SKC=

USA.gov is the U.S. government's official web portal to all federal, state and local government web resources and services.